KISN

Sloulin Field International Airport

Williston, North Dakota, USA
KISN 201738Z 2018/2118 12009KT P6SM SKC FM202200 12011G19KT P6SM FEW250 FM210200 12012KT P6SM FEW250 FM210500 15006KT P6SM SKC FM211700 17014G22KT P6SM FEW200
Issued Valid From Valid To
Apr-20 @ 17:38 UTC
(55 minutes ago)
Apr-20 @ 18:00 UTC
(33 minutes ago)
Apr-21 @ 18:00 UTC
(in 23 hours)
Apr-20 @ 18:00 to Apr-20 @ 22:00
KISN 201738Z 2018/2118 12009KT P6SM SKC
Wind Visibility Clouds
120° at 9 knots Greater than 6 miles
  • Clear skies
From Apr-20 @ 22:00 to Apr-21 @ 02:00
FM202200 12011G19KT P6SM FEW250
Wind Visibility Clouds
120° at 11 knots
 Gusting to 19 knots
Greater than 6 miles
  • Few at 25,000' AGL
From Apr-21 @ 02:00 to Apr-21 @ 05:00
FM210200 12012KT P6SM FEW250
Wind Visibility Clouds
120° at 12 knots Greater than 6 miles
  • Few at 25,000' AGL
From Apr-21 @ 05:00 to Apr-21 @ 17:00
FM210500 15006KT P6SM SKC
Wind Visibility Clouds
150° at 6 knots Greater than 6 miles
  • Clear skies
From Apr-21 @ 17:00 to Apr-21 @ 18:00
FM211700 17014G22KT P6SM FEW200
Wind Visibility Clouds
170° at 14 knots
 Gusting to 22 knots
Greater than 6 miles
  • Few at 20,000' AGL
KISN 201738Z 2018/2118 12009KT P6SM SKC FM202200 12011G19KT P6SM FEW250 FM210200 12012KT P6SM FEW250 FM210500 15006KT P6SM SKC FM211700 17014G22KT P6SM FEW200
Issued Apr-20 @ 17:38 UTC
(55 minutes ago)
Valid From Apr-20 @ 18:00 UTC
(33 minutes ago)
Valid To Apr-21 @ 18:00 UTC
(in 23 hours)
Apr-20 @ 18:00 - Apr-20 @ 22:00
Wind Visibility
120° at 9 knots Greater than 6 miles
Clouds
  • Clear skies
From Apr-20 @ 22:00 - Apr-21 @ 02:00
Wind Visibility
120° at 11 knots
 Gusting to 19 knots
Greater than 6 miles
Clouds
  • Few at 25,000' AGL
From Apr-21 @ 02:00 - Apr-21 @ 05:00
Wind Visibility
120° at 12 knots Greater than 6 miles
Clouds
  • Few at 25,000' AGL
From Apr-21 @ 05:00 - Apr-21 @ 17:00
Wind Visibility
150° at 6 knots Greater than 6 miles
Clouds
  • Clear skies
From Apr-21 @ 17:00 - Apr-21 @ 18:00
Wind Visibility
170° at 14 knots
 Gusting to 22 knots
Greater than 6 miles
Clouds
  • Few at 20,000' AGL